Courtland, AL (35618)

11:43 AM CST on February 14, 2016 (GMT -0600)
Courtland Historic District | | Change Station
CLOSE
Current Station
Personal Weather Station
Location: Courtland, AL
Elevation: 587 ft
Nearby Weather Stations

Elev 587 ft 34.67 °N, 87.31 °W | Updated 30 seconds ago

Overcast
Overcast
39.4 °F
Feels Like 37 °F
N
3.2
Wind Variable Wind from ESE

Today
High -- | Low -- °F
--% Chance of Precip.
Yesterday
High -- | Low -- °F
Precip. -- in
Pressure 30.25 in
Visibility 10.0 miles
Clouds Overcast 4900 ft
Windchill 37 °F
Dew Point 14 °F
Humidity 35%
Rainfall 0.00 in
Snow Depth Not available.
6:36 AM 5:31 PM
Waxing Crescent, 43% visible
METAR KMSL 141653Z AUTO 13008KT 10SM OVC049 02/M12 A3023 RMK AO2 SLP241 T00171117
Pressure 30.25 in
Visibility 10.0 miles
Clouds Overcast 4900 ft
Windchill 37 °F
Dew Point 14 °F
Humidity 35%
Rainfall 0.00 in
Snow Depth Not available.
6:36 AM 5:31 PM
Waxing Crescent, 43% visible
METAR KMSL 141653Z AUTO 13008KT 10SM OVC049 02/M12 A3023 RMK AO2 SLP241 T00171117

10-Day Weather Forecast

Almanac

Astronomy

Feb. 14, 2016 Rise Set
Actual Time
Civil Twilight
Nautical Twilight
Astronomical Twilight
Moon
Length of Visible Light
Length of Day
Tomorrow will be .
, % of the Moon is Illuminated

Today's Extremes

State Highs State Lows

Community

WunderPhotos

Upload Photos

1,892,860 photos uploaded!

WunderBlog® & News

Nearby

Air Quality

  Air Quality AQ Index Pollutant
Not available.

Snow Depth

Station Depth Elevation

Earthquake Activity

City Distance Mag. Time & Date
Minimum magnitude displayed is 2.5.

Coastal Water Temperatures

Place Temperature

Stations

Nearby Weather Stations

Station Location Temp. Windchill Dew Point Humidity Wind Precip. Elev Updated Type
                   

Watches & Warnings

There are currently no watches in effect.